createdAt,value
2018-10-17T00:01:50.907Z,75.00
2018-10-17T00:03:53.903Z,75.70
2018-10-17T00:05:56.903Z,75.50
2018-10-17T00:08:00.152Z,75.90
2018-10-17T00:10:04.951Z,75.50
2018-10-17T00:12:07.932Z,74.50
2018-10-17T00:14:10.966Z,75.10
2018-10-17T00:16:13.935Z,75.30
2018-10-17T00:18:16.971Z,76.10
2018-10-17T00:20:20.046Z,77.40
2018-10-17T00:22:23.067Z,76.30
2018-10-17T00:24:26.422Z,77.80
2018-10-17T00:26:29.453Z,78.30
2018-10-17T00:28:34.064Z,76.20
2018-10-17T00:30:37.095Z,76.60
2018-10-17T00:32:40.105Z,77.20
2018-10-17T00:34:43.162Z,76.00
2018-10-17T00:36:46.307Z,75.90
2018-10-17T00:38:49.344Z,76.10
2018-10-17T00:40:52.463Z,74.80
2018-10-17T00:42:56.465Z,74.50
2018-10-17T00:44:59.465Z,75.10
2018-10-17T00:47:04.557Z,74.80
2018-10-17T00:49:07.780Z,75.60
2018-10-17T00:51:10.733Z,75.90
2018-10-17T00:53:13.852Z,76.10
2018-10-17T00:55:16.852Z,75.20
2018-10-17T00:57:19.836Z,75.60
2018-10-17T00:59:22.824Z,75.90
2018-10-17T01:01:26.714Z,76.10
2018-10-17T01:03:29.705Z,75.80
2018-10-17T01:05:34.464Z,74.90
2018-10-17T01:07:37.808Z,74.60
2018-10-17T01:09:40.873Z,75.00
2018-10-17T01:11:43.962Z,74.80
2018-10-17T01:13:47.012Z,74.70
2018-10-17T01:15:50.053Z,76.80
2018-10-17T01:17:53.064Z,77.00
2018-10-17T01:19:56.385Z,77.60
2018-10-17T01:21:59.419Z,77.20
2018-10-17T01:24:02.483Z,77.40
2018-10-17T01:26:07.176Z,76.10
2018-10-17T01:28:10.192Z,78.80
2018-10-17T01:30:13.187Z,80.50
2018-10-17T01:32:16.205Z,78.40
2018-10-17T01:34:19.231Z,76.50
2018-10-17T01:36:22.232Z,75.90
2018-10-17T01:38:25.217Z,76.40
2018-10-17T01:40:28.244Z,76.70
2018-10-17T01:42:31.248Z,76.40
2018-10-17T01:44:35.650Z,75.90
2018-10-17T01:46:38.631Z,78.40
2018-10-17T01:48:41.577Z,78.70
2018-10-17T01:50:44.576Z,79.10
2018-10-17T01:52:47.555Z,78.60
2018-10-17T01:54:50.571Z,79.40
2018-10-17T01:56:53.571Z,79.50
2018-10-17T01:58:56.613Z,79.40
2018-10-17T02:00:59.660Z,78.40
2018-10-17T02:03:04.771Z,77.80
2018-10-17T02:05:07.976Z,77.40
2018-10-17T02:07:11.027Z,78.00
2018-10-17T02:09:14.012Z,78.10
2018-10-17T02:11:17.087Z,78.00
2018-10-17T02:13:21.023Z,77.70
2018-10-17T02:15:24.019Z,77.30
2018-10-17T02:17:27.031Z,77.30
2018-10-17T02:19:30.066Z,78.50
2018-10-17T02:21:34.435Z,79.20
2018-10-17T02:23:37.489Z,77.90
2018-10-17T02:25:40.491Z,80.20
2018-10-17T02:27:43.499Z,80.30
2018-10-17T02:29:46.969Z,81.30
2018-10-17T02:31:50.055Z,81.50
2018-10-17T02:33:53.067Z,81.70
2018-10-17T02:35:56.098Z,79.60
2018-10-17T02:37:59.144Z,79.80
2018-10-17T02:40:02.161Z,79.20
2018-10-17T02:42:07.473Z,77.80
2018-10-17T02:44:10.524Z,77.50
2018-10-17T02:46:13.548Z,78.10
2018-10-17T02:48:16.620Z,77.50
2018-10-17T02:50:19.636Z,77.40
2018-10-17T02:52:22.633Z,77.90
2018-10-17T02:54:26.083Z,77.20
2018-10-17T02:56:29.164Z,78.00
2018-10-17T02:58:32.220Z,77.40
2018-10-17T03:00:36.433Z,78.50
2018-10-17T03:02:39.450Z,80.90
2018-10-17T03:04:42.454Z,81.80
2018-10-17T03:06:45.504Z,80.10
2018-10-17T03:08:48.543Z,79.50
2018-10-17T03:10:52.010Z,77.90
2018-10-17T03:12:55.139Z,79.30
2018-10-17T03:14:58.174Z,79.40
2018-10-17T03:17:02.123Z,78.70
2018-10-17T03:19:06.560Z,78.50
2018-10-17T03:21:09.980Z,78.60
2018-10-17T03:23:13.152Z,77.50
2018-10-17T03:25:16.175Z,77.80
2018-10-17T03:27:19.151Z,78.20
2018-10-17T03:29:22.174Z,78.50
2018-10-17T03:31:25.311Z,78.00
2018-10-17T03:33:28.267Z,78.40
2018-10-17T03:35:31.296Z,78.80
2018-10-17T03:37:35.904Z,78.50
2018-10-17T03:39:38.897Z,79.20
2018-10-17T03:41:41.908Z,79.00
2018-10-17T03:43:44.891Z,79.40
2018-10-17T03:45:47.865Z,79.00
2018-10-17T03:47:50.905Z,78.60
2018-10-17T03:49:54.014Z,81.30
2018-10-17T03:51:56.920Z,80.80
2018-10-17T03:53:59.884Z,80.50
2018-10-17T03:56:04.338Z,79.60
2018-10-17T03:58:07.302Z,81.00
2018-10-17T04:00:10.353Z,82.10
2018-10-17T04:02:13.332Z,80.70
2018-10-17T04:04:16.340Z,80.80
2018-10-17T04:06:19.646Z,78.20
2018-10-17T04:08:22.624Z,78.80
2018-10-17T04:10:25.645Z,78.40
2018-10-17T04:12:28.664Z,78.80
2018-10-17T04:14:31.665Z,77.90
2018-10-17T04:16:35.997Z,78.30
2018-10-17T04:18:39.015Z,78.20
2018-10-17T04:20:42.020Z,77.90
2018-10-17T04:22:49.657Z,77.60
2018-10-17T04:24:52.818Z,77.30
2018-10-17T04:26:55.882Z,78.00
2018-10-17T04:28:59.032Z,78.60
2018-10-17T04:31:02.137Z,78.00
2018-10-17T04:33:06.466Z,79.60
2018-10-17T04:35:09.683Z,78.80
2018-10-17T04:37:12.813Z,78.90
2018-10-17T04:39:15.848Z,78.70
2018-10-17T04:41:19.084Z,78.00
2018-10-17T04:43:22.044Z,80.30
2018-10-17T04:45:25.085Z,79.60
2018-10-17T04:47:28.177Z,81.30
2018-10-17T04:49:31.237Z,82.30
2018-10-17T04:51:35.629Z,81.10
2018-10-17T04:53:38.928Z,80.80
2018-10-17T04:55:41.939Z,78.80
2018-10-17T04:57:44.981Z,79.00
2018-10-17T04:59:48.274Z,78.60
2018-10-17T05:01:51.318Z,79.30
2018-10-17T05:03:54.365Z,79.40
2018-10-17T05:05:57.407Z,79.50
2018-10-17T05:08:00.433Z,79.50
2018-10-17T05:10:04.892Z,79.30
2018-10-17T05:12:08.173Z,79.20
2018-10-17T05:14:11.244Z,79.80
2018-10-17T05:16:14.286Z,80.40
2018-10-17T05:18:17.345Z,80.10
2018-10-17T05:20:20.371Z,81.80
2018-10-17T05:22:23.421Z,82.90
2018-10-17T05:24:26.421Z,80.20
2018-10-17T05:26:29.681Z,79.70
2018-10-17T05:28:34.081Z,79.50
2018-10-17T05:30:37.115Z,80.30
2018-10-17T05:32:40.152Z,81.20
2018-10-17T05:34:43.277Z,80.60
2018-10-17T05:36:46.333Z,81.00
2018-10-17T05:38:49.412Z,82.50
2018-10-17T05:40:52.539Z,83.20
2018-10-17T05:42:55.571Z,82.90
2018-10-17T05:44:58.923Z,83.60
2018-10-17T05:47:02.005Z,83.90
2018-10-17T05:49:07.031Z,82.00
2018-10-17T05:51:10.286Z,80.40
2018-10-17T05:53:13.365Z,80.70
2018-10-17T05:55:16.573Z,80.30
2018-10-17T05:57:19.523Z,80.30
2018-10-17T05:59:22.581Z,79.70
2018-10-17T06:01:25.670Z,79.30
2018-10-17T06:03:28.654Z,80.90
2018-10-17T06:05:31.696Z,79.50
2018-10-17T06:07:36.131Z,79.80
2018-10-17T06:09:39.217Z,79.80
2018-10-17T06:11:42.369Z,79.80
2018-10-17T06:13:45.425Z,80.60
2018-10-17T06:15:48.466Z,79.40
2018-10-17T06:17:51.573Z,80.00
2018-10-17T06:19:54.619Z,79.80
2018-10-17T06:21:57.701Z,82.50
2018-10-17T06:24:00.797Z,82.30
2018-10-17T06:26:05.024Z,81.30
2018-10-17T06:28:08.411Z,79.20
2018-10-17T06:30:11.502Z,79.80
2018-10-17T06:32:14.525Z,82.30
2018-10-17T06:34:17.651Z,80.80
2018-10-17T06:36:20.628Z,80.60
2018-10-17T06:38:23.672Z,81.10
2018-10-17T06:40:27.009Z,81.50
2018-10-17T06:42:30.075Z,80.60
2018-10-17T06:44:34.492Z,79.70
2018-10-17T06:46:37.801Z,81.40
2018-10-17T06:48:40.857Z,82.90
2018-10-17T06:50:43.953Z,82.60
2018-10-17T06:52:47.073Z,82.90
2018-10-17T06:54:50.183Z,82.90
2018-10-17T06:56:53.221Z,84.30
2018-10-17T06:58:56.510Z,83.70
2018-10-17T07:00:59.597Z,83.30
2018-10-17T07:03:03.849Z,82.70
2018-10-17T07:05:07.899Z,84.10
2018-10-17T07:07:11.229Z,84.80
2018-10-17T07:09:14.178Z,85.30
2018-10-17T07:11:17.619Z,85.40
2018-10-17T07:13:20.932Z,85.60
2018-10-17T07:15:23.941Z,85.40
2018-10-17T07:17:26.936Z,86.30
2018-10-17T07:19:30.001Z,87.00
2018-10-17T07:21:34.359Z,86.20
2018-10-17T07:23:37.400Z,86.40
2018-10-17T07:25:40.505Z,86.90
2018-10-17T07:27:43.558Z,87.30
2018-10-17T07:29:46.771Z,86.40
2018-10-17T07:31:49.746Z,86.70
2018-10-17T07:33:52.778Z,86.50
2018-10-17T07:35:55.899Z,86.30
2018-10-17T07:37:58.920Z,86.60
2018-10-17T07:40:02.234Z,86.60
2018-10-17T07:42:07.164Z,85.70
2018-10-17T07:44:10.203Z,85.70
2018-10-17T07:46:13.319Z,85.00
2018-10-17T07:48:16.591Z,85.50
2018-10-17T07:50:19.641Z,85.70
2018-10-17T07:52:22.693Z,85.40
2018-10-17T07:54:25.760Z,85.60
2018-10-17T07:56:28.820Z,85.60
2018-10-17T07:58:32.125Z,85.70
2018-10-17T08:00:36.414Z,85.90
2018-10-17T08:02:39.551Z,85.00
2018-10-17T08:04:42.690Z,85.60
2018-10-17T08:06:45.789Z,84.60
2018-10-17T08:08:48.784Z,84.60
2018-10-17T08:10:51.894Z,84.70
2018-10-17T08:12:54.963Z,84.30
2018-10-17T08:14:58.030Z,83.00
2018-10-17T08:17:01.110Z,82.90
2018-10-17T08:19:06.177Z,82.40
2018-10-17T08:21:09.219Z,82.10
2018-10-17T08:23:12.373Z,81.20
2018-10-17T08:25:15.420Z,81.20
2018-10-17T08:27:18.475Z,80.00
2018-10-17T08:29:22.011Z,79.30
2018-10-17T08:31:25.484Z,79.10
2018-10-17T08:33:28.501Z,78.80
2018-10-17T08:35:31.689Z,78.30
2018-10-17T08:37:36.771Z,78.10
2018-10-17T08:39:39.511Z,78.50
2018-10-17T08:41:42.581Z,77.00
2018-10-17T08:43:45.603Z,76.90
2018-10-17T08:45:48.745Z,76.90
2018-10-17T08:47:51.833Z,76.30
2018-10-17T08:49:54.900Z,76.10
2018-10-17T08:51:57.934Z,75.50
2018-10-17T08:54:00.984Z,74.50
2018-10-17T08:56:04.693Z,75.40
2018-10-17T08:58:07.695Z,72.70
2018-10-17T09:00:10.789Z,73.90
2018-10-17T09:02:13.947Z,73.10
2018-10-17T09:04:17.001Z,73.90
2018-10-17T09:06:20.174Z,74.10
2018-10-17T09:08:23.271Z,73.40
2018-10-17T09:10:26.223Z,71.70
2018-10-17T09:12:29.305Z,71.80
2018-10-17T09:14:32.390Z,71.30
2018-10-17T09:16:35.494Z,72.00
2018-10-17T09:18:38.547Z,72.40
2018-10-17T09:20:41.788Z,69.50
2018-10-17T09:22:44.685Z,69.60
2018-10-17T09:24:47.753Z,71.10
2018-10-17T09:26:50.791Z,69.90
2018-10-17T09:28:54.237Z,69.30
2018-10-17T09:30:57.284Z,68.90
2018-10-17T09:33:00.384Z,68.00
2018-10-17T09:35:05.571Z,67.40
2018-10-17T09:37:08.569Z,67.70
2018-10-17T09:39:11.950Z,65.60
2018-10-17T09:41:15.009Z,65.80
2018-10-17T09:43:18.097Z,65.50
2018-10-17T09:45:21.016Z,63.90
2018-10-17T09:47:24.063Z,64.20
2018-10-17T09:49:27.043Z,62.40
2018-10-17T09:51:30.049Z,62.70
2018-10-17T09:53:34.392Z,62.40
2018-10-17T09:55:37.428Z,61.90
2018-10-17T09:57:40.439Z,61.50
2018-10-17T09:59:43.476Z,62.20
2018-10-17T10:01:50.061Z,61.40
2018-10-17T10:03:53.245Z,60.50
2018-10-17T10:05:56.412Z,61.70
2018-10-17T10:07:59.365Z,61.40
2018-10-17T10:10:02.514Z,59.60
2018-10-17T10:12:06.960Z,61.50
2018-10-17T10:14:09.923Z,60.00
2018-10-17T10:16:13.067Z,59.30
2018-10-17T10:18:16.013Z,59.10
2018-10-17T10:20:19.036Z,59.10
2018-10-17T10:22:22.337Z,59.50
2018-10-17T10:24:25.348Z,57.90
2018-10-17T10:26:28.381Z,58.00
2018-10-17T10:28:31.524Z,56.50
2018-10-17T10:30:35.896Z,56.30
2018-10-17T10:32:38.872Z,56.50
2018-10-17T10:34:41.901Z,54.40
2018-10-17T10:36:44.928Z,55.80
2018-10-17T10:38:47.945Z,56.50
2018-10-17T10:40:50.985Z,56.60
2018-10-17T10:42:53.981Z,56.10
2018-10-17T10:44:57.079Z,55.50
2018-10-17T10:47:00.043Z,54.80
2018-10-17T10:49:03.668Z,53.30
2018-10-17T10:51:07.239Z,54.50
2018-10-17T10:53:10.805Z,52.60
2018-10-17T10:55:13.812Z,53.50
2018-10-17T10:57:16.870Z,52.60
2018-10-17T10:59:19.990Z,54.80
2018-10-17T11:01:22.968Z,52.80
2018-10-17T11:03:25.959Z,53.70
2018-10-17T11:05:29.124Z,51.80
2018-10-17T11:07:32.040Z,54.00
2018-10-17T11:09:36.341Z,53.90
2018-10-17T11:11:39.571Z,51.90
2018-10-17T11:13:42.604Z,52.80
2018-10-17T11:15:45.951Z,51.90
2018-10-17T11:17:48.949Z,52.00
2018-10-17T11:19:51.986Z,51.90
2018-10-17T11:21:55.075Z,50.00
2018-10-17T11:23:58.017Z,51.20
2018-10-17T11:26:01.074Z,50.60
2018-10-17T11:28:05.840Z,49.40
2018-10-17T11:30:10.276Z,51.00
2018-10-17T11:32:13.275Z,48.70
2018-10-17T11:34:16.336Z,49.90
2018-10-17T11:36:19.321Z,49.30
2018-10-17T11:38:22.310Z,48.60
2018-10-17T11:40:25.361Z,49.00
2018-10-17T11:42:28.388Z,50.70
2018-10-17T11:44:31.373Z,50.40
2018-10-17T11:46:35.955Z,49.50
2018-10-17T11:48:38.924Z,48.90
2018-10-17T11:50:41.941Z,49.60
2018-10-17T11:52:44.963Z,48.10
2018-10-17T11:54:47.981Z,48.70
2018-10-17T11:56:51.103Z,48.10
2018-10-17T11:58:54.471Z,47.50
2018-10-17T12:00:57.442Z,46.70
2018-10-17T12:03:00.502Z,47.30
2018-10-17T12:05:05.135Z,49.00
2018-10-17T12:07:07.784Z,48.40
2018-10-17T12:09:10.824Z,46.90
2018-10-17T12:11:13.841Z,46.90
2018-10-17T12:13:16.814Z,48.10
2018-10-17T12:15:19.911Z,47.00
2018-10-17T12:17:22.869Z,47.40
2018-10-17T12:19:25.924Z,48.30
2018-10-17T12:21:28.937Z,48.40
2018-10-17T12:23:31.956Z,47.10
2018-10-17T12:25:36.166Z,48.60
2018-10-17T12:27:39.283Z,46.10
2018-10-17T12:29:42.308Z,45.90
2018-10-17T12:31:45.327Z,45.80
2018-10-17T12:33:48.368Z,45.90
2018-10-17T12:35:51.487Z,46.60
2018-10-17T12:37:54.472Z,47.00
2018-10-17T12:39:57.592Z,47.00
2018-10-17T12:42:00.479Z,46.10
2018-10-17T12:44:05.567Z,47.20
2018-10-17T12:46:08.623Z,46.40
2018-10-17T12:48:11.649Z,46.10
2018-10-17T12:50:14.743Z,45.20
2018-10-17T12:52:17.811Z,44.90
2018-10-17T12:54:20.770Z,44.80
2018-10-17T12:56:23.789Z,45.40
2018-10-17T12:58:26.908Z,44.70
2018-10-17T13:00:30.298Z,44.70
2018-10-17T13:02:34.600Z,44.90
2018-10-17T13:04:37.901Z,45.50
2018-10-17T13:06:41.170Z,45.20
2018-10-17T13:08:44.311Z,45.00
2018-10-17T13:10:47.269Z,45.50
2018-10-17T13:12:50.553Z,45.80
2018-10-17T13:14:53.593Z,44.30
2018-10-17T13:16:56.646Z,44.00
2018-10-17T13:18:59.683Z,45.30
2018-10-17T13:21:04.091Z,45.90
2018-10-17T13:23:07.216Z,45.90
2018-10-17T13:25:10.285Z,45.70
2018-10-17T13:27:13.214Z,46.30
2018-10-17T13:29:16.378Z,45.00
2018-10-17T13:31:19.365Z,44.90
2018-10-17T13:33:22.385Z,44.60
2018-10-17T13:35:25.416Z,45.50
2018-10-17T13:37:28.427Z,45.10
2018-10-17T13:39:31.705Z,44.30
2018-10-17T13:41:36.226Z,44.50
2018-10-17T13:43:39.261Z,43.40
2018-10-17T13:45:42.357Z,44.70
2018-10-17T13:47:45.385Z,43.50
2018-10-17T13:49:48.693Z,43.50
2018-10-17T13:51:51.600Z,44.30
2018-10-17T13:53:58.681Z,44.10
2018-10-17T13:56:01.727Z,44.70
2018-10-17T13:58:07.073Z,44.90
2018-10-17T14:00:11.569Z,45.20
2018-10-17T14:02:14.585Z,45.00
2018-10-17T14:04:18.137Z,45.60
2018-10-17T14:06:21.338Z,44.60
2018-10-17T14:08:24.385Z,45.00
2018-10-17T14:10:27.439Z,45.20
2018-10-17T14:12:30.511Z,44.70
2018-10-17T14:14:34.904Z,44.30
2018-10-17T14:16:37.923Z,43.80
2018-10-17T14:18:40.945Z,43.30
2018-10-17T14:20:43.929Z,44.80
2018-10-17T14:22:46.973Z,44.00
2018-10-17T14:24:50.021Z,44.70
2018-10-17T14:26:53.141Z,44.40
2018-10-17T14:28:56.285Z,44.80
2018-10-17T14:30:59.381Z,45.10
2018-10-17T14:33:02.436Z,44.50
2018-10-17T14:35:10.074Z,45.00
2018-10-17T14:37:13.237Z,44.90
2018-10-17T14:39:16.270Z,43.90
2018-10-17T14:41:19.379Z,44.20
2018-10-17T14:43:22.361Z,44.10
2018-10-17T14:45:25.423Z,44.40
2018-10-17T14:47:28.467Z,43.90
2018-10-17T14:49:31.486Z,44.40
2018-10-17T14:51:35.573Z,44.50
2018-10-17T14:53:38.777Z,44.30
2018-10-17T14:55:41.833Z,44.60
2018-10-17T14:57:44.804Z,45.40
2018-10-17T14:59:47.935Z,45.10
2018-10-17T15:01:51.402Z,45.30
2018-10-17T15:03:54.417Z,45.10
2018-10-17T15:05:57.980Z,45.30
2018-10-17T15:08:01.019Z,45.30
2018-10-17T15:10:05.580Z,45.70
2018-10-17T15:12:10.289Z,45.90
2018-10-17T15:14:13.399Z,45.60
2018-10-17T15:16:16.386Z,46.00
2018-10-17T15:18:19.457Z,45.90
2018-10-17T15:20:22.512Z,45.80
2018-10-17T15:22:25.609Z,45.70
2018-10-17T15:24:28.682Z,45.90
2018-10-17T15:26:31.736Z,46.20
2018-10-17T15:28:36.198Z,46.60
2018-10-17T15:30:39.231Z,47.00
2018-10-17T15:32:42.291Z,47.20
2018-10-17T15:34:45.420Z,47.50
2018-10-17T15:36:48.519Z,47.60
2018-10-17T15:38:51.665Z,48.00
2018-10-17T15:40:54.691Z,48.30
2018-10-17T15:42:57.915Z,48.50
2018-10-17T15:45:01.533Z,49.00
2018-10-17T15:47:05.847Z,49.80
2018-10-17T15:49:08.906Z,49.00
2018-10-17T15:51:12.004Z,49.50
2018-10-17T15:53:15.175Z,49.70
2018-10-17T15:55:18.066Z,50.00
2018-10-17T15:57:21.056Z,50.00
2018-10-17T15:59:24.077Z,49.70
2018-10-17T16:01:27.322Z,50.40
2018-10-17T16:03:30.401Z,50.70
2018-10-17T16:05:34.878Z,50.40
2018-10-17T16:07:37.906Z,50.50
2018-10-17T16:09:40.926Z,50.70
2018-10-17T16:11:44.461Z,50.80
2018-10-17T16:13:47.352Z,50.80
2018-10-17T16:15:50.470Z,51.20
2018-10-17T16:17:53.671Z,51.50
2018-10-17T16:19:56.699Z,51.40
2018-10-17T16:21:59.640Z,51.50
2018-10-17T16:24:04.994Z,51.60
2018-10-17T16:26:07.998Z,52.40
2018-10-17T16:28:10.955Z,52.20
2018-10-17T16:30:14.015Z,52.10
2018-10-17T16:32:17.082Z,53.10
2018-10-17T16:34:20.076Z,53.20
2018-10-17T16:36:23.140Z,52.90
2018-10-17T16:38:26.161Z,53.00
2018-10-17T16:40:29.125Z,53.10
2018-10-17T16:42:32.474Z,53.90
2018-10-17T16:44:36.713Z,54.10
2018-10-17T16:46:39.764Z,54.40
2018-10-17T16:48:43.161Z,54.80
2018-10-17T16:50:46.223Z,54.60
2018-10-17T16:52:49.159Z,55.20
2018-10-17T16:54:52.248Z,54.70
2018-10-17T16:56:55.264Z,55.40
2018-10-17T16:58:58.277Z,55.80
2018-10-17T17:01:01.306Z,56.00
2018-10-17T17:03:06.073Z,56.00
2018-10-17T17:05:11.489Z,56.80
2018-10-17T17:07:14.509Z,56.70
2018-10-17T17:09:17.679Z,56.30
2018-10-17T17:11:20.571Z,56.70
2018-10-17T17:13:23.589Z,56.80
2018-10-17T17:15:26.560Z,57.50
2018-10-17T17:17:29.545Z,56.50
2018-10-17T17:19:33.760Z,57.50
2018-10-17T17:21:36.811Z,57.80
2018-10-17T17:23:39.789Z,57.60
2018-10-17T17:25:42.814Z,57.70
2018-10-17T17:27:45.783Z,57.70
2018-10-17T17:29:49.132Z,58.20
2018-10-17T17:31:52.158Z,58.30
2018-10-17T17:33:55.145Z,58.30
2018-10-17T17:35:58.168Z,59.00
2018-10-17T17:38:01.169Z,58.40
2018-10-17T17:40:06.023Z,59.50
2018-10-17T17:42:09.065Z,59.70
2018-10-17T17:44:12.037Z,60.60
2018-10-17T17:46:15.143Z,61.20
2018-10-17T17:48:18.111Z,60.60
2018-10-17T17:50:21.084Z,60.10
2018-10-17T17:52:24.121Z,61.80
2018-10-17T17:54:27.075Z,60.90
2018-10-17T17:56:30.057Z,62.20
2018-10-17T17:58:34.454Z,61.30
2018-10-17T18:00:37.368Z,60.70
2018-10-17T18:02:40.737Z,60.50
2018-10-17T18:04:43.752Z,61.60
2018-10-17T18:06:46.771Z,60.90
2018-10-17T18:08:49.803Z,61.30
2018-10-17T18:10:52.796Z,61.50
2018-10-17T18:12:55.801Z,63.30
2018-10-17T18:14:58.823Z,62.50
2018-10-17T18:17:02.109Z,62.60
2018-10-17T18:19:06.985Z,65.90
2018-10-17T18:21:10.001Z,65.80
2018-10-17T18:23:13.065Z,67.10
2018-10-17T18:25:16.066Z,66.70
2018-10-17T18:27:19.090Z,65.60
2018-10-17T18:29:22.077Z,65.10
2018-10-17T18:31:25.344Z,65.90
2018-10-17T18:33:28.323Z,66.10
2018-10-17T18:35:31.337Z,65.80
2018-10-17T18:37:36.253Z,65.80
2018-10-17T18:39:39.284Z,65.30
2018-10-17T18:41:42.301Z,65.30
2018-10-17T18:43:45.270Z,65.70
2018-10-17T18:45:48.704Z,65.30
2018-10-17T18:47:51.769Z,64.70
2018-10-17T18:49:54.722Z,65.90
2018-10-17T18:51:58.014Z,66.30
2018-10-17T18:54:00.988Z,67.80
2018-10-17T18:56:05.654Z,67.80
2018-10-17T18:58:08.901Z,68.00
2018-10-17T19:00:11.877Z,69.20
2018-10-17T19:02:14.856Z,71.00
2018-10-17T19:04:18.074Z,69.30
2018-10-17T19:06:21.083Z,70.00
2018-10-17T19:08:24.073Z,68.90
2018-10-17T19:10:27.087Z,68.50
2018-10-17T19:12:30.092Z,69.30
2018-10-17T19:14:34.581Z,69.50
2018-10-17T19:16:37.615Z,69.20
2018-10-17T19:18:40.604Z,69.90
2018-10-17T19:20:43.611Z,69.80
2018-10-17T19:22:46.616Z,69.40
2018-10-17T19:24:49.643Z,70.00
2018-10-17T19:26:52.694Z,70.20
2018-10-17T19:28:55.634Z,71.00
2018-10-17T19:30:58.606Z,71.20
2018-10-17T19:33:01.645Z,71.30
2018-10-17T19:35:06.695Z,71.60
2018-10-17T19:37:09.657Z,70.70
2018-10-17T19:39:13.250Z,73.00
2018-10-17T19:41:16.318Z,72.50
2018-10-17T19:43:19.315Z,72.50
2018-10-17T19:45:22.343Z,71.70
2018-10-17T19:47:25.661Z,70.90
2018-10-17T19:49:28.675Z,71.40
2018-10-17T19:51:31.693Z,72.00
2018-10-17T19:53:36.000Z,72.60
2018-10-17T19:55:39.003Z,72.00
2018-10-17T19:57:42.016Z,73.90
2018-10-17T19:59:45.275Z,74.40
2018-10-17T20:01:48.250Z,73.50
2018-10-17T20:03:51.393Z,72.60
2018-10-17T20:05:54.420Z,72.40
2018-10-17T20:07:57.414Z,72.00
2018-10-17T20:10:00.380Z,72.80
2018-10-17T20:12:05.091Z,72.30
2018-10-17T20:14:08.809Z,73.00
2018-10-17T20:16:11.815Z,72.30
2018-10-17T20:18:15.154Z,73.40
2018-10-17T20:20:18.169Z,72.30
2018-10-17T20:22:21.277Z,74.60
2018-10-17T20:24:24.296Z,72.50
2018-10-17T20:26:27.284Z,74.50
2018-10-17T20:28:30.360Z,72.20
2018-10-17T20:30:35.115Z,72.50
2018-10-17T20:32:38.157Z,72.90
2018-10-17T20:34:41.105Z,73.60
2018-10-17T20:36:44.138Z,73.00
2018-10-17T20:38:47.119Z,73.70
2018-10-17T20:40:50.127Z,73.40
2018-10-17T20:42:53.186Z,74.20
2018-10-17T20:44:56.192Z,74.20
2018-10-17T20:46:59.197Z,74.30
2018-10-17T20:49:02.309Z,72.70
2018-10-17T20:51:06.412Z,74.00
2018-10-17T20:53:11.488Z,74.20
2018-10-17T20:55:14.581Z,73.70
2018-10-17T21:01:50.141Z,73.60
2018-10-17T21:03:53.358Z,74.50
2018-10-17T21:05:56.426Z,74.90
2018-10-17T21:07:59.455Z,74.30
2018-10-17T21:10:02.433Z,73.50
2018-10-17T21:12:07.368Z,73.70
2018-10-17T21:14:10.943Z,74.30
2018-10-17T21:16:13.921Z,76.00
2018-10-17T21:18:16.955Z,74.70
2018-10-17T21:20:19.904Z,75.80
2018-10-17T21:22:22.873Z,75.00
2018-10-17T21:24:26.236Z,75.40
2018-10-17T21:26:29.273Z,76.40
2018-10-17T21:28:32.257Z,75.90
2018-10-17T21:30:36.455Z,76.30
2018-10-17T21:32:39.445Z,76.20
2018-10-17T21:34:42.421Z,76.60
2018-10-17T21:36:45.425Z,76.80
2018-10-17T21:38:48.409Z,76.60
2018-10-17T21:40:51.783Z,76.30
2018-10-17T21:42:55.009Z,77.70
2018-10-17T21:44:58.095Z,78.40
2018-10-17T21:47:01.121Z,77.00
2018-10-17T21:49:05.077Z,77.90
2018-10-17T21:51:08.030Z,77.10
2018-10-17T21:53:11.008Z,77.40
2018-10-17T21:55:14.006Z,78.10
2018-10-17T21:57:16.985Z,81.10
2018-10-17T21:59:19.950Z,81.70
2018-10-17T22:01:23.021Z,80.40
2018-10-17T22:03:26.380Z,79.20
2018-10-17T22:05:29.347Z,78.50
2018-10-17T22:07:32.433Z,79.00
2018-10-17T22:09:36.830Z,78.30
2018-10-17T22:11:39.828Z,77.90
2018-10-17T22:13:42.792Z,77.70
2018-10-17T22:15:45.777Z,78.10
2018-10-17T22:17:48.753Z,78.50
2018-10-17T22:19:51.808Z,79.30
2018-10-17T22:21:54.778Z,78.60
2018-10-17T22:23:57.796Z,78.40
2018-10-17T22:26:00.938Z,77.70
2018-10-17T22:28:05.897Z,77.00
2018-10-17T22:30:09.032Z,77.00
2018-10-17T22:32:12.073Z,78.00
2018-10-17T22:34:15.032Z,78.30
2018-10-17T22:40:50.637Z,81.60
2018-10-17T22:42:53.663Z,80.00
2018-10-17T22:44:56.636Z,79.10
2018-10-17T22:46:59.653Z,80.00
2018-10-17T22:49:04.488Z,79.70
2018-10-17T22:51:07.475Z,79.10
2018-10-17T22:53:10.472Z,78.90
2018-10-17T22:55:13.457Z,79.40
2018-10-17T22:57:16.477Z,80.60
2018-10-17T22:59:19.434Z,81.50
2018-10-17T23:01:22.543Z,81.90
2018-10-17T23:03:25.560Z,82.40
2018-10-17T23:05:28.541Z,82.90
2018-10-17T23:07:31.555Z,83.30
2018-10-17T23:09:35.064Z,82.90
2018-10-17T23:11:38.240Z,82.70
2018-10-17T23:13:41.199Z,83.20
2018-10-17T23:15:44.173Z,82.70
2018-10-17T23:17:47.181Z,82.20
2018-10-17T23:19:50.209Z,81.40
2018-10-17T23:21:53.257Z,81.00
2018-10-17T23:23:56.278Z,80.40
2018-10-17T23:25:59.291Z,78.70
2018-10-17T23:28:02.278Z,79.30
2018-10-17T23:30:07.876Z,80.30
2018-10-17T23:32:10.879Z,79.70
2018-10-17T23:34:13.857Z,80.90
2018-10-17T23:36:16.812Z,82.20
2018-10-17T23:38:19.771Z,81.70
2018-10-17T23:40:22.860Z,81.20
2018-10-17T23:42:25.867Z,82.80
2018-10-17T23:44:28.944Z,79.80
2018-10-17T23:46:31.935Z,80.30
2018-10-17T23:48:36.801Z,80.60
2018-10-17T23:50:39.834Z,79.90
2018-10-17T23:52:42.837Z,79.40
2018-10-17T23:54:45.817Z,79.90
2018-10-17T23:56:48.865Z,78.80
2018-10-17T23:58:51.913Z,78.20
